Halden, Minnesota
Current Conditions -  °F | °C
As of 4:16 PM on Monday 20 Oct 2014 (Local Time) from KCOQ Reporting Station
Overcast Overcast  
Wind Chill: 52°   Ceiling: 2900
Heat Index: 52°   Visibility: 10mi
Dew Point: 37°   Wind: 9mph
Humidity: 58%   Direction: 330°NNW
Pressure: 30.01"   Gusts: 16mph
Location:  46.9584°N, 92.9445°W
Report Text: KCOQ 202116Z AUTO 33008G14KT 10SM OVC029 11/03 A3001 RMK AO2
Loading
Personal Weather Stations






























Interactive Weather Map
Tropical Storm Tracking
New forecast layout! Learn more

10-Day Weather Forecast

Advertisements
Track Severe Weather on mobile